createdAt,value
2022-09-14T00:00:29.474Z,483.23
2022-09-14T00:02:55.902Z,484.42
2022-09-14T00:05:22.478Z,480.25
2022-09-14T00:07:48.762Z,470.70
2022-09-14T00:10:15.077Z,471.95
2022-09-14T00:12:41.952Z,466.60
2022-09-14T00:15:08.333Z,464.42
2022-09-14T00:17:34.646Z,463.63
2022-09-14T00:20:01.093Z,460.67
2022-09-14T00:22:27.543Z,456.05
2022-09-14T00:24:53.856Z,451.55
2022-09-14T00:27:20.160Z,454.50
2022-09-14T00:29:46.842Z,451.42
2022-09-14T00:32:13.807Z,450.15
2022-09-14T00:34:40.432Z,434.27
2022-09-14T00:37:06.744Z,430.08
2022-09-14T00:39:33.204Z,438.08
2022-09-14T00:41:59.537Z,429.77
2022-09-14T00:44:25.909Z,428.10
2022-09-14T00:46:52.610Z,427.52
2022-09-14T00:49:18.930Z,428.98
2022-09-14T00:51:45.197Z,416.13
2022-09-14T00:54:11.494Z,417.15
2022-09-14T00:56:37.800Z,411.98
2022-09-14T00:59:04.166Z,420.13
2022-09-14T01:01:30.551Z,404.63
2022-09-14T01:03:56.903Z,407.63
2022-09-14T01:06:23.971Z,409.35
2022-09-14T01:08:50.293Z,396.25
2022-09-14T01:11:16.662Z,395.55
2022-09-14T01:13:43.404Z,393.42
2022-09-14T01:16:09.721Z,392.63
2022-09-14T01:18:36.119Z,395.33
2022-09-14T01:21:02.501Z,386.23
2022-09-14T01:23:29.258Z,388.30
2022-09-14T01:25:55.614Z,375.17
2022-09-14T01:28:22.248Z,373.30
2022-09-14T01:30:48.592Z,375.90
2022-09-14T01:33:15.062Z,368.00
2022-09-14T01:35:41.413Z,367.85
2022-09-14T01:38:07.834Z,363.23
2022-09-14T01:40:34.233Z,364.85
2022-09-14T01:43:00.597Z,358.30
2022-09-14T01:45:26.955Z,363.15
2022-09-14T01:47:53.466Z,350.75
2022-09-14T01:50:19.740Z,352.95
2022-09-14T01:52:46.069Z,357.38
2022-09-14T01:55:12.324Z,347.23
2022-09-14T01:57:38.609Z,353.58
2022-09-14T02:00:04.897Z,336.38
2022-09-14T02:02:31.493Z,344.33
2022-09-14T02:04:58.089Z,330.25
2022-09-14T02:07:24.429Z,333.50
2022-09-14T02:09:50.845Z,332.45
2022-09-14T02:12:17.779Z,335.75
2022-09-14T02:14:44.309Z,326.05
2022-09-14T02:17:10.806Z,321.15
2022-09-14T02:19:37.233Z,325.58
2022-09-14T02:22:03.548Z,320.45
2022-09-14T02:24:30.245Z,312.00
2022-09-14T02:26:56.538Z,310.55
2022-09-14T02:29:23.268Z,303.27
2022-09-14T02:31:49.593Z,304.17
2022-09-14T02:34:15.965Z,304.85
2022-09-14T02:36:42.438Z,298.40
2022-09-14T02:39:08.886Z,297.85
2022-09-14T02:41:35.152Z,294.15
2022-09-14T02:44:01.527Z,291.25
2022-09-14T02:46:28.023Z,290.67
2022-09-14T02:48:54.343Z,282.92
2022-09-14T02:51:20.588Z,289.58
2022-09-14T02:53:47.029Z,284.00
2022-09-14T02:56:13.273Z,281.73
2022-09-14T02:58:39.862Z,279.70
2022-09-14T03:01:06.270Z,275.65
2022-09-14T03:03:35.644Z,266.98
2022-09-14T03:06:02.398Z,269.88
2022-09-14T03:08:28.874Z,268.02
2022-09-14T03:10:55.192Z,268.55
2022-09-14T03:13:21.635Z,260.30
2022-09-14T03:15:47.998Z,258.13
2022-09-14T03:18:14.697Z,258.95
2022-09-14T03:20:41.125Z,259.02
2022-09-14T03:23:07.380Z,253.05
2022-09-14T03:25:33.869Z,248.95
2022-09-14T03:28:00.522Z,254.55
2022-09-14T03:30:27.060Z,246.20
2022-09-14T03:32:53.544Z,243.88
2022-09-14T03:35:19.996Z,237.77
2022-09-14T03:37:46.430Z,238.25
2022-09-14T03:40:12.746Z,237.90
2022-09-14T03:42:39.068Z,240.07
2022-09-14T03:45:05.363Z,235.65
2022-09-14T03:47:31.788Z,237.45
2022-09-14T03:49:58.062Z,226.50
2022-09-14T03:52:24.378Z,230.45
2022-09-14T03:54:50.692Z,222.52
2022-09-14T03:57:17.010Z,224.43
2022-09-14T03:59:43.933Z,219.77
2022-09-14T04:02:10.607Z,221.77
2022-09-14T04:04:36.953Z,211.23
2022-09-14T04:07:03.199Z,216.40
2022-09-14T04:09:29.580Z,217.50
2022-09-14T04:11:56.844Z,212.50
2022-09-14T04:14:23.158Z,208.85
2022-09-14T04:16:49.449Z,203.82
2022-09-14T04:19:15.847Z,203.40
2022-09-14T04:21:42.154Z,203.40
2022-09-14T04:24:15.030Z,202.55
2022-09-14T04:26:42.214Z,199.32
2022-09-14T04:29:08.530Z,201.32
2022-09-14T04:31:34.839Z,194.82
2022-09-14T04:34:01.220Z,191.65
2022-09-14T04:36:27.537Z,187.05
2022-09-14T04:38:53.910Z,185.98
2022-09-14T04:41:20.180Z,189.82
2022-09-14T04:43:46.486Z,168.40
2022-09-14T04:46:12.804Z,121.55
2022-09-14T04:48:39.098Z,127.65
2022-09-14T04:51:05.394Z,125.57
2022-09-14T04:53:31.713Z,106.38
2022-09-14T04:55:58.083Z,108.60
2022-09-14T04:58:24.314Z,100.20
2022-09-14T05:00:50.923Z,94.75
2022-09-14T05:03:17.316Z,90.70
2022-09-14T05:05:44.874Z,81.18
2022-09-14T05:08:11.280Z,79.25
2022-09-14T05:10:37.625Z,90.53
2022-09-14T05:13:03.940Z,85.38
2022-09-14T05:15:30.319Z,86.88
2022-09-14T05:17:56.666Z,89.05
2022-09-14T05:20:23.033Z,86.55
2022-09-14T05:22:49.282Z,88.28
2022-09-14T05:25:16.118Z,87.85
2022-09-14T05:27:42.448Z,86.15
2022-09-14T05:30:08.796Z,86.00
2022-09-14T05:32:35.073Z,86.13
2022-09-14T05:35:01.410Z,85.57
2022-09-14T05:37:27.837Z,82.82
2022-09-14T05:39:54.250Z,87.43
2022-09-14T05:42:20.699Z,84.60
2022-09-14T05:44:47.023Z,83.55
2022-09-14T05:47:13.432Z,80.78
2022-09-14T05:49:40.009Z,83.88
2022-09-14T05:52:06.401Z,81.70
2022-09-14T05:54:32.704Z,80.90
2022-09-14T05:56:58.969Z,81.65
2022-09-14T05:59:25.377Z,79.07
2022-09-14T06:01:51.725Z,81.15
2022-09-14T06:04:18.292Z,77.35
2022-09-14T06:06:52.279Z,76.50
2022-09-14T06:09:32.462Z,76.20
2022-09-14T06:11:59.519Z,75.20
2022-09-14T06:14:25.980Z,74.57
2022-09-14T06:16:52.322Z,73.80
2022-09-14T06:19:18.684Z,73.85
2022-09-14T06:21:44.974Z,70.97
2022-09-14T06:24:11.312Z,71.63
2022-09-14T06:26:37.891Z,72.85
2022-09-14T06:29:04.210Z,69.60
2022-09-14T06:31:30.526Z,72.60
2022-09-14T06:33:56.827Z,68.07
2022-09-14T06:36:23.191Z,71.43
2022-09-14T06:38:50.065Z,69.47
2022-09-14T06:41:16.580Z,67.03
2022-09-14T06:43:42.893Z,68.25
2022-09-14T06:46:09.177Z,67.30
2022-09-14T06:48:35.633Z,66.93
2022-09-14T06:51:01.958Z,65.43
2022-09-14T06:53:28.404Z,66.50
2022-09-14T06:55:55.554Z,63.75
2022-09-14T06:58:21.889Z,64.25
2022-09-14T07:00:48.240Z,64.25
2022-09-14T07:03:14.673Z,63.40
2022-09-14T07:05:41.126Z,61.30
2022-09-14T07:08:11.920Z,61.60
2022-09-14T07:10:38.742Z,60.70
2022-09-14T07:13:05.047Z,59.92
2022-09-14T07:15:32.373Z,59.92
2022-09-14T07:17:58.700Z,61.13
2022-09-14T07:20:25.005Z,59.55
2022-09-14T07:22:51.306Z,61.63
2022-09-14T07:25:17.579Z,57.80
2022-09-14T07:27:43.990Z,57.88
2022-09-14T07:30:10.368Z,57.80
2022-09-14T07:32:36.610Z,57.30
2022-09-14T07:35:02.982Z,56.38
2022-09-14T07:37:29.446Z,56.70
2022-09-14T07:39:56.121Z,55.55
2022-09-14T07:42:22.454Z,54.53
2022-09-14T07:44:49.022Z,56.58
2022-09-14T07:47:15.630Z,55.60
2022-09-14T07:49:42.294Z,54.42
2022-09-14T07:52:08.614Z,53.33
2022-09-14T07:54:35.094Z,53.22
2022-09-14T07:57:01.860Z,53.80
2022-09-14T07:59:36.959Z,52.22
2022-09-14T08:02:03.593Z,52.00
2022-09-14T08:04:29.912Z,50.95
2022-09-14T08:06:56.529Z,51.95
2022-09-14T08:09:23.266Z,49.03
2022-09-14T08:11:49.732Z,51.42
2022-09-14T08:14:16.016Z,47.83
2022-09-14T08:16:42.440Z,50.50
2022-09-14T08:19:08.905Z,48.28
2022-09-14T08:21:35.316Z,50.10
2022-09-14T08:24:01.648Z,47.55
2022-09-14T08:26:28.160Z,48.83
2022-09-14T08:28:54.538Z,47.47
2022-09-14T08:31:20.922Z,48.10
2022-09-14T08:33:47.978Z,47.97
2022-09-14T08:36:14.298Z,45.95
2022-09-14T08:38:40.627Z,46.42
2022-09-14T08:41:06.966Z,46.92
2022-09-14T08:43:33.330Z,47.08
2022-09-14T08:45:59.864Z,44.47
2022-09-14T08:48:26.250Z,44.42
2022-09-14T08:50:52.884Z,46.13
2022-09-14T08:53:19.261Z,43.08
2022-09-14T08:55:45.940Z,44.63
2022-09-14T08:58:12.537Z,44.25
2022-09-14T09:00:39.072Z,43.88
2022-09-14T09:03:05.492Z,44.17
2022-09-14T09:05:32.019Z,43.45
2022-09-14T09:07:58.524Z,42.17
2022-09-14T09:10:25.010Z,41.80
2022-09-14T09:12:51.389Z,41.15
2022-09-14T09:15:17.994Z,40.60
2022-09-14T09:17:44.458Z,42.20
2022-09-14T09:20:11.088Z,39.97
2022-09-14T09:22:37.776Z,40.25
2022-09-14T09:25:04.058Z,40.92
2022-09-14T09:27:30.368Z,40.75
2022-09-14T09:29:56.616Z,39.92
2022-09-14T09:32:23.019Z,39.58
2022-09-14T09:34:49.346Z,38.80
2022-09-14T09:37:15.596Z,38.85
2022-09-14T09:39:42.076Z,38.08
2022-09-14T09:42:08.496Z,35.97
2022-09-14T09:44:34.870Z,38.78
2022-09-14T09:47:01.234Z,37.97
2022-09-14T09:49:27.617Z,37.08
2022-09-14T09:51:53.889Z,37.25
2022-09-14T09:54:20.197Z,36.78
2022-09-14T09:56:46.485Z,34.85
2022-09-14T09:59:12.944Z,36.65
2022-09-14T10:01:39.955Z,35.08
2022-09-14T10:04:06.436Z,35.88
2022-09-14T10:06:32.756Z,34.38
2022-09-14T10:08:58.989Z,35.22
2022-09-14T10:11:25.552Z,35.45
2022-09-14T10:13:51.905Z,33.42
2022-09-14T10:16:18.283Z,34.47
2022-09-14T10:18:48.768Z,34.10
2022-09-14T10:21:15.498Z,35.08
2022-09-14T10:23:41.802Z,34.08
2022-09-14T10:26:08.133Z,35.13
2022-09-14T10:28:34.608Z,33.83
2022-09-14T10:31:00.953Z,33.33
2022-09-14T10:33:27.338Z,32.47
2022-09-14T10:35:53.631Z,33.45
2022-09-14T10:38:19.998Z,32.47
2022-09-14T10:40:46.355Z,31.55
2022-09-14T10:43:12.662Z,30.60
2022-09-14T10:45:39.045Z,31.45
2022-09-14T10:48:05.326Z,30.48
2022-09-14T10:50:31.841Z,30.73
2022-09-14T10:52:58.269Z,30.90
2022-09-14T10:55:24.904Z,30.20
2022-09-14T10:57:51.560Z,31.15
2022-09-14T11:00:17.820Z,29.23
2022-09-14T11:02:44.224Z,30.50
2022-09-14T11:05:10.719Z,29.30
2022-09-14T11:07:37.240Z,29.73
2022-09-14T11:10:03.614Z,29.05
2022-09-14T11:12:29.946Z,28.65
2022-09-14T11:14:56.953Z,28.50
2022-09-14T11:17:23.785Z,27.08
2022-09-14T11:19:50.320Z,28.67
2022-09-14T11:22:16.618Z,28.50
2022-09-14T11:24:43.008Z,27.77
2022-09-14T11:27:09.252Z,27.95
2022-09-14T11:29:35.610Z,27.30
2022-09-14T11:32:19.694Z,26.75
2022-09-14T11:34:47.073Z,27.95
2022-09-14T11:37:13.514Z,28.05
2022-09-14T11:39:39.848Z,26.40
2022-09-14T11:42:06.441Z,27.23
2022-09-14T11:44:33.114Z,26.35
2022-09-14T11:47:00.983Z,25.38
2022-09-14T11:49:27.387Z,25.35
2022-09-14T11:51:53.709Z,26.35
2022-09-14T11:54:20.073Z,25.60
2022-09-14T11:56:46.434Z,25.20
2022-09-14T11:59:13.712Z,23.45
2022-09-14T12:01:39.985Z,24.88
2022-09-14T12:04:06.786Z,23.60
2022-09-14T12:06:33.136Z,25.38
2022-09-14T12:08:59.581Z,23.88
2022-09-14T12:11:28.525Z,23.45
2022-09-14T12:13:54.905Z,24.27
2022-09-14T12:16:21.485Z,22.52
2022-09-14T12:18:48.268Z,22.40
2022-09-14T12:21:14.527Z,22.08
2022-09-14T12:23:40.945Z,20.48
2022-09-14T12:26:07.217Z,19.95
2022-09-14T12:28:33.514Z,20.05
2022-09-14T12:30:59.934Z,20.88
2022-09-14T12:33:26.281Z,20.77
2022-09-14T12:35:52.560Z,20.50
2022-09-14T12:38:19.162Z,20.08
2022-09-14T12:40:45.733Z,20.75
2022-09-14T12:43:12.170Z,20.13
2022-09-14T12:45:38.528Z,19.65
2022-09-14T12:48:04.812Z,22.05
2022-09-14T12:50:31.364Z,115.43
2022-09-14T12:52:57.770Z,46.00
2022-09-14T12:55:24.801Z,29.70
2022-09-14T12:57:51.069Z,41.90
2022-09-14T13:00:17.385Z,51.72
2022-09-14T13:02:43.958Z,60.13
2022-09-14T13:05:10.386Z,62.58
2022-09-14T13:07:36.677Z,63.25
2022-09-14T13:10:03.264Z,60.70
2022-09-14T13:12:30.073Z,61.95
2022-09-14T13:14:56.441Z,61.15
2022-09-14T13:17:22.772Z,62.45
2022-09-14T13:19:49.084Z,62.78
2022-09-14T13:22:15.373Z,60.70
2022-09-14T13:24:41.666Z,59.03
2022-09-14T13:27:08.764Z,59.65
2022-09-14T13:29:35.150Z,59.30
2022-09-14T13:32:04.002Z,60.35
2022-09-14T13:34:31.368Z,59.03
2022-09-14T13:36:57.688Z,57.35
2022-09-14T13:39:23.983Z,56.80
2022-09-14T13:41:50.458Z,55.35
2022-09-14T13:44:16.810Z,58.17
2022-09-14T13:46:43.110Z,55.63
2022-09-14T13:49:09.544Z,54.88
2022-09-14T13:51:36.337Z,55.85
2022-09-14T13:54:02.639Z,54.53
2022-09-14T13:56:28.958Z,54.88
2022-09-14T13:58:55.244Z,51.10
2022-09-14T14:01:22.436Z,51.47
2022-09-14T14:03:49.097Z,51.63
2022-09-14T14:06:15.506Z,50.55
2022-09-14T14:08:41.937Z,51.45
2022-09-14T14:11:08.289Z,50.72
2022-09-14T14:13:34.643Z,49.35
2022-09-14T14:16:01.074Z,50.00
2022-09-14T14:18:27.428Z,48.58
2022-09-14T14:20:53.746Z,47.88
2022-09-14T14:23:20.075Z,50.25
2022-09-14T14:25:46.500Z,47.17
2022-09-14T14:28:12.952Z,49.05
2022-09-14T14:30:39.326Z,46.97
2022-09-14T14:33:05.821Z,46.38
2022-09-14T14:35:32.182Z,47.15
2022-09-14T14:37:58.533Z,46.25
2022-09-14T14:40:24.920Z,46.83
2022-09-14T14:42:51.360Z,45.20
2022-09-14T14:45:17.723Z,45.10
2022-09-14T14:47:44.097Z,45.58
2022-09-14T14:50:10.444Z,45.63
2022-09-14T14:52:36.836Z,42.50
2022-09-14T14:55:03.142Z,41.50
2022-09-14T14:57:29.623Z,43.33
2022-09-14T14:59:55.933Z,41.47
2022-09-14T15:02:22.350Z,38.97
2022-09-14T15:04:48.677Z,39.55
2022-09-14T15:07:15.160Z,38.50
2022-09-14T15:09:41.426Z,39.38
2022-09-14T15:12:07.945Z,39.03
2022-09-14T15:14:34.500Z,37.70
2022-09-14T15:17:00.841Z,38.10
2022-09-14T15:19:27.340Z,37.20
2022-09-14T15:21:57.293Z,37.95
2022-09-14T15:24:26.688Z,36.15
2022-09-14T15:26:53.105Z,36.70
2022-09-14T15:29:19.526Z,36.22
2022-09-14T15:31:46.119Z,33.08
2022-09-14T15:34:12.437Z,37.05
2022-09-14T15:36:38.745Z,32.55
2022-09-14T15:39:05.069Z,32.67
2022-09-14T15:41:31.344Z,33.50
2022-09-14T15:43:57.997Z,32.95
2022-09-14T15:46:24.337Z,30.52
2022-09-14T15:48:50.728Z,28.13
2022-09-14T15:51:16.997Z,26.60
2022-09-14T15:53:43.354Z,30.15
2022-09-14T15:56:09.610Z,27.02
2022-09-14T15:58:35.954Z,27.00
2022-09-14T16:01:03.089Z,25.85
2022-09-14T16:03:30.058Z,28.83
2022-09-14T16:05:56.406Z,25.13
2022-09-14T16:08:22.942Z,27.92
2022-09-14T16:10:49.270Z,23.80
2022-09-14T16:13:15.538Z,26.58
2022-09-14T16:15:41.961Z,26.23
2022-09-14T16:18:08.418Z,28.17
2022-09-14T16:20:35.701Z,27.67
2022-09-14T16:23:02.024Z,25.13
2022-09-14T16:25:28.319Z,23.48
2022-09-14T16:27:54.674Z,24.20
2022-09-14T16:30:21.020Z,24.02
2022-09-14T16:32:47.401Z,21.02
2022-09-14T16:35:13.881Z,22.83
2022-09-14T16:37:40.194Z,20.20
2022-09-14T16:40:06.691Z,18.77
2022-09-14T16:42:33.360Z,20.60
2022-09-14T16:44:59.714Z,20.35
2022-09-14T16:47:26.041Z,19.85
2022-09-14T16:49:52.316Z,21.27
2022-09-14T16:52:18.676Z,20.45
2022-09-14T16:54:45.195Z,19.25
2022-09-14T16:57:12.604Z,17.08
2022-09-14T16:59:38.982Z,17.27
2022-09-14T17:02:05.391Z,18.20
2022-09-14T17:04:31.752Z,15.10
2022-09-14T17:06:58.034Z,16.77
2022-09-14T17:09:24.381Z,16.73
2022-09-14T17:11:50.679Z,16.98
2022-09-14T17:14:17.068Z,18.45
2022-09-14T17:16:43.448Z,18.58
2022-09-14T17:19:09.936Z,17.05
2022-09-14T17:21:36.209Z,16.00
2022-09-14T17:24:02.646Z,15.68
2022-09-14T17:26:28.976Z,18.83
2022-09-14T17:28:55.982Z,16.88
2022-09-14T17:31:22.356Z,16.80
2022-09-14T17:33:49.020Z,13.98
2022-09-14T17:36:15.420Z,16.85
2022-09-14T17:38:41.706Z,15.88
2022-09-14T17:41:07.964Z,15.65
2022-09-14T17:43:34.874Z,16.65
2022-09-14T17:46:01.193Z,15.85
2022-09-14T17:48:27.630Z,16.92
2022-09-14T17:50:54.141Z,14.95
2022-09-14T17:53:20.509Z,13.55
2022-09-14T17:55:46.740Z,13.48
2022-09-14T17:58:16.451Z,15.30
2022-09-14T18:00:47.463Z,14.02
2022-09-14T18:03:13.860Z,13.50
2022-09-14T18:05:40.283Z,15.05
2022-09-14T18:08:06.592Z,14.02
2022-09-14T18:10:32.888Z,14.15
2022-09-14T18:12:59.731Z,12.70
2022-09-14T18:15:26.100Z,12.73
2022-09-14T18:17:52.531Z,11.73
2022-09-14T18:20:18.844Z,14.32
2022-09-14T18:22:45.483Z,14.18
2022-09-14T18:25:11.768Z,12.10
2022-09-14T18:27:38.413Z,14.55
2022-09-14T18:30:04.705Z,12.05
2022-09-14T18:32:34.657Z,13.38
2022-09-14T18:35:01.608Z,14.77
2022-09-14T18:37:27.958Z,12.88
2022-09-14T18:39:54.476Z,13.57
2022-09-14T18:42:20.786Z,12.77
2022-09-14T18:44:47.406Z,12.30
2022-09-14T18:47:13.851Z,11.10
2022-09-14T18:49:40.906Z,11.90
2022-09-14T18:52:07.243Z,11.93
2022-09-14T18:54:33.551Z,11.70
2022-09-14T18:56:59.830Z,12.82
2022-09-14T18:59:26.127Z,12.98
2022-09-14T19:01:52.713Z,12.63
2022-09-14T19:04:19.348Z,13.02
2022-09-14T19:06:45.712Z,12.45
2022-09-14T19:09:12.009Z,11.48
2022-09-14T19:11:38.553Z,11.45
2022-09-14T19:14:04.983Z,11.02
2022-09-14T19:16:31.591Z,11.38
2022-09-14T19:18:57.963Z,11.30
2022-09-14T19:21:24.437Z,10.98
2022-09-14T19:23:50.836Z,11.50
2022-09-14T19:26:17.244Z,11.02
2022-09-14T19:28:43.682Z,10.43
2022-09-14T19:31:10.116Z,10.88
2022-09-14T19:33:36.524Z,13.27
2022-09-14T19:36:02.878Z,11.10
2022-09-14T19:38:29.217Z,11.30
2022-09-14T19:40:55.488Z,10.40
2022-09-14T19:43:21.853Z,10.68
2022-09-14T19:45:48.253Z,10.75
2022-09-14T19:48:14.768Z,10.25
2022-09-14T19:50:41.054Z,9.93
2022-09-14T19:53:07.444Z,10.18
2022-09-14T19:55:33.777Z,10.77
2022-09-14T19:58:00.608Z,10.45
2022-09-14T20:00:28.146Z,9.35
2022-09-14T20:02:54.473Z,9.63
2022-09-14T20:05:20.901Z,10.10
2022-09-14T20:07:47.411Z,10.73
2022-09-14T20:10:13.734Z,9.65
2022-09-14T20:12:40.090Z,9.75
2022-09-14T20:15:06.584Z,9.30
2022-09-14T20:17:32.988Z,11.15
2022-09-14T20:19:59.517Z,8.93
2022-09-14T20:22:25.932Z,10.05
2022-09-14T20:24:52.306Z,9.95
2022-09-14T20:27:18.745Z,9.30
2022-09-14T20:29:45.010Z,9.15
2022-09-14T20:32:11.457Z,9.68
2022-09-14T20:34:37.940Z,9.05
2022-09-14T20:37:04.928Z,9.10
2022-09-14T20:39:31.205Z,9.65
2022-09-14T20:41:57.650Z,8.50
2022-09-14T20:44:23.896Z,9.57
2022-09-14T20:46:50.535Z,9.07
2022-09-14T20:49:16.936Z,9.27
2022-09-14T20:51:43.286Z,10.95
2022-09-14T20:54:09.600Z,9.38
2022-09-14T20:56:35.858Z,8.90
2022-09-14T20:59:02.282Z,9.18
2022-09-14T21:01:28.650Z,9.00
2022-09-14T21:03:55.081Z,8.60
2022-09-14T21:06:21.418Z,10.20
2022-09-14T21:08:47.802Z,8.93
2022-09-14T21:11:14.213Z,7.97
2022-09-14T21:13:40.680Z,8.68
2022-09-14T21:16:06.997Z,8.05
2022-09-14T21:18:33.329Z,9.60
2022-09-14T21:21:02.801Z,8.07
2022-09-14T21:23:29.292Z,8.57
2022-09-14T21:25:55.636Z,8.57
2022-09-14T21:28:21.982Z,8.38
2022-09-14T21:30:48.444Z,8.70
2022-09-14T21:33:14.804Z,8.35
2022-09-14T21:35:41.092Z,8.73
2022-09-14T21:38:07.490Z,8.43
2022-09-14T21:40:33.858Z,7.68
2022-09-14T21:43:00.122Z,8.02
2022-09-14T21:45:26.610Z,7.68
2022-09-14T21:47:52.984Z,7.63
2022-09-14T21:50:20.087Z,7.45
2022-09-14T21:52:46.453Z,8.18
2022-09-14T21:55:12.900Z,8.50
2022-09-14T21:57:39.368Z,9.43
2022-09-14T22:00:05.640Z,9.63
2022-09-14T22:02:32.410Z,7.93
2022-09-14T22:04:59.030Z,7.47
2022-09-14T22:07:25.518Z,8.05
2022-09-14T22:09:51.881Z,8.05
2022-09-14T22:12:18.137Z,7.97
2022-09-14T22:14:44.460Z,7.60
2022-09-14T22:17:10.785Z,8.18
2022-09-14T22:19:37.426Z,6.63
2022-09-14T22:22:03.865Z,7.20
2022-09-14T22:24:34.893Z,7.43
2022-09-14T22:27:03.708Z,7.70
2022-09-14T22:29:30.103Z,8.07
2022-09-14T22:31:56.424Z,7.05
2022-09-14T22:34:22.737Z,8.27
2022-09-14T22:36:49.040Z,8.48
2022-09-14T22:39:15.293Z,7.88
2022-09-14T22:41:41.572Z,7.40
2022-09-14T22:44:07.907Z,7.38
2022-09-14T22:46:34.342Z,7.95
2022-09-14T22:49:00.649Z,7.43
2022-09-14T22:51:26.997Z,7.22
2022-09-14T22:53:53.268Z,7.22
2022-09-14T22:56:20.933Z,7.78
2022-09-14T22:58:47.254Z,6.97
2022-09-14T23:01:13.663Z,7.30
2022-09-14T23:03:39.961Z,7.30
2022-09-14T23:06:06.379Z,6.97
2022-09-14T23:08:32.745Z,6.95
2022-09-14T23:10:59.198Z,7.82
2022-09-14T23:13:25.547Z,6.63
2022-09-14T23:15:52.181Z,8.98
2022-09-14T23:18:18.570Z,6.55
2022-09-14T23:20:44.855Z,7.18
2022-09-14T23:23:11.728Z,7.50
2022-09-14T23:25:38.034Z,6.65
2022-09-14T23:28:04.504Z,7.47
2022-09-14T23:30:31.602Z,6.70
2022-09-14T23:32:57.961Z,6.30
2022-09-14T23:35:24.290Z,6.50
2022-09-14T23:37:50.562Z,6.05
2022-09-14T23:40:17.007Z,5.88
2022-09-14T23:42:43.406Z,6.40
2022-09-14T23:45:09.702Z,10.88
2022-09-14T23:47:35.960Z,6.35
2022-09-14T23:50:02.198Z,6.90
2022-09-14T23:52:28.528Z,6.47
2022-09-14T23:54:54.942Z,6.63
2022-09-14T23:57:21.262Z,6.55
2022-09-14T23:59:47.721Z,6.13
